Avalon, CA

4:49 AM PDT on October 24, 2014 (GMT -0700)
Catalina | Change Station
CLOSE
Current Station
Airport
Location: Avalon,
Elevation: 1601 ft
Nearby Weather Stations

Elev 1601 ft 33.40 °N, 118.42 °W | Updated 58 minutes ago

Clear
Clear
72 °F
Feels Like 72 °F
N
0
Wind Variable Wind from North

Today
High -- | Low -- °F
--% Chance of Precip.
Yesterday
High -- | Low -- °F
Precip. -- in
7:05 AM 6:09 PM
New Moon, 0% visible
Pressure 29.91 in
Visibility 10.0 miles
Clouds Clear
Dew Point 21 °F
Humidity 15%
Rainfall 0.00 in
Snow Depth Not available.
UV 0 out of 12
Pollen 4.10 out of 12
Air Quality Not available.
Flu Activity Sporadic
METAR KAVX 241051Z AUTO 00000KT 10SM CLR 22/M06 A3000 RMK AO2 SLP129 T02221061

More Conditions Fewer Conditions

Pressure 29.91 in
Visibility 10.0 miles
Clouds Clear
Dew Point 21 °F
Humidity 15%
Rainfall 0.00 in
Snow Depth Not available.
UV 0 out of 12
Pollen 4.10 out of 12
Air Quality Not available.
Flu Activity Sporadic
METAR KAVX 241051Z AUTO 00000KT 10SM CLR 22/M06 A3000 RMK AO2 SLP129 T02221061

More Conditions Fewer Conditions

10-Day Weather Forecast

Almanac

Astronomy

Oct. 24, 2014 Rise Set
Actual Time 7:05 AM PDT 6:09 PM PDT
Civil Twilight 6:39 AM PDT 6:34 PM PDT
Nautical Twilight 6:10 AM PDT 7:03 PM PDT
Astronomical Twilight 5:41 AM PDT 7:32 PM PDT
Moon 7:47 AM PDT 6:55 PM PDT
Length of Visible Light 11h 54m
Length of Day
11h 04m
Tomorrow will be 1m 52s shorter.
New Moon, 0% of the Moon is Illuminated
Today
New Moon
Oct 30
First Quarter
Nov 6
Full
Nov 14
Last Quarter
Nov 22
New

Today's Extremes

State Highs State Lows

Community

WunderPhotos

Upload Photos

1,764,526 photos uploaded!

Nearby

Snow Depth

Station Depth Elevation
Virginia Lakes Ridge 0 in 9200 ft
Leavitt Lake 1 in 9400 ft
Sonora Pass 0 in 8800 ft
Leavitt Meadows 1 in 7200 ft
Summit Meadow 1 in 9122 ft

Earthquake Activity

City Distance Mag. Time & Date
Brea, California 47 miles 2.9 3:35 PM PDT
2014-10-23
Brea, California 48 miles 2.8 3:34 PM PDT
2014-10-23
Corona, California 52 miles 2.5 1:09 PM PDT
2014-10-23
Solvang, California 129 miles 2.6 5:35 PM PDT
2014-10-22
Minimum magnitude displayed is 2.5.

Coastal Water Temperatures

Place Temperature
Santa Monica Pier 69.1 °F
Los Angeles, CA 69.1 °F
La Jolla, CA 71.1 °F

Nearby Weather Stations